Time;durP1;ratioP1;P1;durP2;ratioP2;P2;SDS_P1;SDS_P2;PMS_P1;PMS_P2;Temp;Humidity;BMP_temperature;BMP_pressure;BME280_temperature;BME280_humidity;BME280_pressure;Samples;Min_cycle;Max_cycle;Signal;HPM_P1;HPM_P2
2020/12/20 00:00:36;;;;;;;1999.90;999.90;;;9.30;99.90;;;;;;6218705;23;20137;-84
2020/12/20 00:03:03;;;;;;;1999.90;999.90;;;9.20;99.90;;;;;;6218627;23;20141;-84
2020/12/20 00:05:29;;;;;;;1999.90;999.90;;;9.20;99.90;;;;;;6219109;23;20140;-84
2020/12/20 00:07:55;;;;;;;1999.90;999.90;;;9.20;99.90;;;;;;6192298;23;20275;-84
2020/12/20 00:10:21;;;;;;;1999.90;999.90;;;9.10;99.90;;;;;;6217990;23;20168;-84
2020/12/20 00:12:47;;;;;;;1999.90;999.90;;;9.20;99.90;;;;;;6192420;23;20430;-83
2020/12/20 00:15:13;;;;;;;1999.90;999.90;;;9.20;99.90;;;;;;6218171;23;20585;-84
2020/12/20 00:17:39;;;;;;;1999.90;999.90;;;9.20;99.90;;;;;;6191836;23;20151;-84
2020/12/20 00:20:07;;;;;;;1999.90;999.90;;;9.20;99.90;;;;;;6218338;23;20136;-84
2020/12/20 00:22:41;;;;;;;1999.90;999.90;;;9.20;99.90;;;;;;6219318;22;20200;-82
2020/12/20 00:25:15;;;;;;;1999.90;999.90;;;9.20;99.90;;;;;;6198309;23;20474;-81
2020/12/20 00:28:07;;;;;;;1999.90;999.90;;;9.20;99.90;;;;;;6223962;23;20643;-81
2020/12/20 00:30:50;;;;;;;1999.90;999.90;;;9.30;99.90;;;;;;6223253;23;20164;-80
2020/12/20 00:33:48;;;;;;;;;;;;;;;;;;;;;
2020/12/20 00:37:13;;;;;;;1999.90;999.90;;;9.20;99.90;;;;;;6158143;23;20168;-80
2020/12/20 00:39:43;;;;;;;1999.90;999.90;;;9.30;99.90;;;;;;6106306;23;20171;-81
2020/12/20 00:42:18;;;;;;;1999.90;999.90;;;9.30;99.90;;;;;;6224643;23;20145;-81
2020/12/20 00:44:53;;;;;;;1999.90;999.90;;;9.30;99.90;;;;;;6224990;23;20623;-82
2020/12/20 00:47:48;;;;;;;1999.90;999.90;;;9.30;99.90;;;;;;6224309;23;20139;-82
2020/12/20 00:50:22;;;;;;;1999.90;999.90;;;9.30;99.90;;;;;;6194604;23;20153;-81
2020/12/20 00:52:55;;;;;;;1999.90;999.90;;;9.30;99.90;;;;;;6223692;23;20164;-81
2020/12/20 00:55:27;;;;;;;1999.90;999.90;;;9.30;99.90;;;;;;6224352;23;20554;-81
2020/12/20 00:57:56;;;;;;;1999.90;999.90;;;9.40;99.90;;;;;;6224349;23;20223;-80
2020/12/20 01:00:32;;;;;;;1999.90;999.90;;;9.30;99.90;;;;;;6197648;23;20155;-82
2020/12/20 01:03:04;;;;;;;1999.90;999.90;;;9.40;99.90;;;;;;6198155;23;20517;-81
2020/12/20 01:05:38;;;;;;;1999.90;999.90;;;9.40;99.90;;;;;;6223532;23;20223;-81
2020/12/20 01:08:12;;;;;;;1999.90;999.90;;;9.30;99.90;;;;;;6223607;23;20124;-81
2020/12/20 01:10:45;;;;;;;1999.90;999.90;;;9.30;99.90;;;;;;6223129;23;20128;-81
2020/12/20 01:13:17;;;;;;;1999.90;999.90;;;9.40;99.90;;;;;;6197460;23;20179;-81
2020/12/20 01:15:54;;;;;;;1999.90;999.90;;;9.30;99.90;;;;;;6223933;23;20136;-81
2020/12/20 01:18:46;;;;;;;;;;;;;;;;;;;;;
2020/12/20 01:21:38;;;;;;;1999.90;999.90;;;9.30;99.90;;;;;;6222773;23;20187;-81
2020/12/20 01:24:27;;;;;;;1999.90;999.90;;;9.40;99.90;;;;;;6196178;23;20153;-81
2020/12/20 01:27:01;;;;;;;1999.90;999.90;;;9.40;99.90;;;;;;6196243;23;20613;-81
2020/12/20 01:29:29;;;;;;;1999.90;999.90;;;9.40;99.90;;;;;;6223832;23;20125;-81
2020/12/20 01:32:00;;;;;;;1999.90;999.90;;;9.40;99.90;;;;;;6224564;23;20168;-81
2020/12/20 01:34:32;;;;;;;1999.90;999.90;;;9.40;99.90;;;;;;6198745;23;20152;-81
2020/12/20 01:37:09;;;;;;;1999.90;999.90;;;9.40;99.90;;;;;;6198648;23;20143;-81
2020/12/20 01:39:38;;;;;;;1999.90;999.90;;;9.40;99.90;;;;;;6225374;23;20144;-81
2020/12/20 01:42:07;;;;;;;1999.90;999.90;;;9.40;99.90;;;;;;6225246;23;20188;-81
2020/12/20 01:44:36;;;;;;;1999.90;999.90;;;9.40;99.90;;;;;;6225426;23;20223;-79
2020/12/20 01:47:06;;;;;;;1999.90;999.90;;;9.40;99.90;;;;;;6225280;23;20121;-81
2020/12/20 01:49:38;;;;;;;1999.90;999.90;;;9.50;99.90;;;;;;6225394;23;20171;-81
2020/12/20 01:52:22;;;;;;;1999.90;999.90;;;9.40;99.90;;;;;;6225065;23;20156;-81
2020/12/20 01:58:04;;;;;;;1999.90;999.90;;;9.50;99.90;;;;;;6225403;23;20140;-81
2020/12/20 02:00:36;;;;;;;1999.90;999.90;;;9.50;99.90;;;;;;6225509;23;20152;-81
2020/12/20 02:03:14;;;;;;;1999.90;999.90;;;9.50;99.90;;;;;;6225182;23;20132;-81
2020/12/20 02:05:47;;;;;;;1999.90;999.90;;;9.50;99.90;;;;;;6225294;23;20477;-81
2020/12/20 02:08:21;;;;;;;1999.90;999.90;;;9.50;99.90;;;;;;6225467;23;20204;-81
2020/12/20 02:11:10;;;;;;;1999.90;999.90;;;9.50;99.90;;;;;;6198895;23;20139;-81
2020/12/20 02:13:55;;;;;;;1999.90;999.90;;;9.50;99.90;;;;;;6225438;23;20172;-81
2020/12/20 02:16:23;;;;;;;1999.90;999.90;;;9.50;99.90;;;;;;6225924;23;20137;-81
2020/12/20 02:18:59;;;;;;;1999.90;999.90;;;9.50;99.90;;;;;;6225529;23;20147;-81
2020/12/20 02:21:33;;;;;;;1999.90;999.90;;;9.50;99.90;;;;;;6224850;23;20240;-81
2020/12/20 02:24:08;;;;;;;1999.90;999.90;;;9.50;99.90;;;;;;6224866;23;20199;-81
2020/12/20 02:27:08;;;;;;;1999.90;999.90;;;9.50;99.90;;;;;;6197582;23;20171;-81
2020/12/20 02:29:38;;;;;;;1999.90;999.90;;;9.50;99.90;;;;;;6217301;23;20257;-81
2020/12/20 02:32:11;;;;;;;1999.90;999.90;;;9.40;99.90;;;;;;6198293;23;20172;-81
2020/12/20 02:34:39;;;;;;;1999.90;999.90;;;9.40;99.90;;;;;;6225098;23;20139;-80
2020/12/20 02:37:05;;;;;;;1999.90;999.90;;;9.40;99.90;;;;;;6198146;23;20148;-82
2020/12/20 02:39:42;;;;;;;1999.90;999.90;;;9.40;99.90;;;;;;6199255;23;20148;-81
2020/12/20 02:42:11;;;;;;;1999.90;999.90;;;9.40;99.90;;;;;;6225070;23;20347;-81
2020/12/20 02:44:43;;;;;;;1999.90;999.90;;;9.30;99.90;;;;;;6198810;23;20490;-81
2020/12/20 02:47:17;;;;;;;1999.90;999.90;;;9.30;99.90;;;;;;6224736;23;20140;-79
2020/12/20 02:49:46;;;;;;;1999.90;999.90;;;9.30;99.90;;;;;;6198174;23;20144;-81
2020/12/20 02:52:15;;;;;;;1999.90;999.90;;;9.30;99.90;;;;;;6199730;23;20176;-82
2020/12/20 02:54:43;;;;;;;1999.90;999.90;;;9.30;99.90;;;;;;6198609;23;20148;-82
2020/12/20 02:57:18;;;;;;;1999.90;999.90;;;9.40;99.90;;;;;;6198676;23;20145;-82
2020/12/20 02:59:46;;;;;;;1999.90;999.90;;;9.30;99.90;;;;;;6199338;23;20144;-81
2020/12/20 03:02:12;;;;;;;1999.90;999.90;;;9.30;99.90;;;;;;6225481;23;20144;-81
2020/12/20 03:04:49;;;;;;;1999.90;999.90;;;9.30;99.90;;;;;;6199536;23;20151;-81
2020/12/20 03:07:24;;;;;;;1999.90;999.90;;;9.30;99.90;;;;;;6225272;23;20187;-82
2020/12/20 03:09:53;;;;;;;1999.90;999.90;;;9.30;99.90;;;;;;6201318;23;20183;-81
2020/12/20 03:12:33;;;;;;;1999.90;999.90;;;9.30;99.90;;;;;;6225066;23;20521;-81
2020/12/20 03:14:59;;;;;;;1999.90;999.90;;;9.30;99.90;;;;;;6198345;23;20467;-81
2020/12/20 03:17:33;;;;;;;1999.90;999.90;;;9.20;99.90;;;;;;6198062;23;20177;-82
2020/12/20 03:20:13;;;;;;;1999.90;999.90;;;9.20;99.90;;;;;;6224827;23;20347;-82
2020/12/20 03:22:41;;;;;;;1999.90;999.90;;;9.20;99.90;;;;;;6225438;23;20164;-81
2020/12/20 03:25:10;;;;;;;1999.90;999.90;;;9.30;99.90;;;;;;6225371;23;20144;-82
2020/12/20 03:27:38;;;;;;;1999.90;999.90;;;9.20;99.90;;;;;;6224992;23;20191;-81
2020/12/20 03:30:11;;;;;;;1999.90;999.90;;;9.20;99.90;;;;;;6198843;23;20235;-81
2020/12/20 03:32:41;;;;;;;1999.90;999.90;;;9.20;99.90;;;;;;6196823;23;20169;-82
2020/12/20 03:35:30;;;;;;;;;;;;;;;;;;;;;
2020/12/20 03:37:58;;;;;;;1999.90;999.90;;;9.20;99.90;;;;;;6225559;23;20145;-82
2020/12/20 03:40:25;;;;;;;1999.90;999.90;;;9.20;99.90;;;;;;6224929;23;20140;-81
2020/12/20 03:42:53;;;;;;;1999.90;999.90;;;9.20;99.90;;;;;;6199192;23;20140;-82
2020/12/20 03:45:31;;;;;;;1999.90;999.90;;;9.20;99.90;;;;;;6198058;23;20471;-82
2020/12/20 03:48:06;;;;;;;1999.90;999.90;;;9.20;99.90;;;;;;6224646;23;20141;-82
2020/12/20 03:50:40;;;;;;;1999.90;999.90;;;9.20;99.90;;;;;;6225512;23;20140;-82
2020/12/20 03:53:16;;;;;;;1999.90;999.90;;;9.20;99.90;;;;;;6224347;23;20157;-82
2020/12/20 03:55:53;;;;;;;1999.90;999.90;;;9.20;99.90;;;;;;6225133;23;20200;-81
2020/12/20 03:58:25;;;;;;;1999.90;999.90;;;9.20;99.90;;;;;;6198785;23;20466;-81
2020/12/20 04:01:00;;;;;;;1999.90;999.90;;;9.20;99.90;;;;;;6197655;23;20176;-82
2020/12/20 04:03:29;;;;;;;1999.90;999.90;;;9.20;99.90;;;;;;6224792;23;20124;-82
2020/12/20 04:05:57;;;;;;;1999.90;999.90;;;9.20;99.90;;;;;;6224508;23;20171;-82
2020/12/20 04:08:29;;;;;;;1999.90;999.90;;;9.20;99.90;;;;;;6224258;23;20145;-81
2020/12/20 04:10:57;;;;;;;1999.90;999.90;;;9.20;99.90;;;;;;6197452;23;20212;-81
2020/12/20 04:13:46;;;;;;;;;;;;;;;;;;;;;
2020/12/20 04:16:21;;;;;;;1999.90;999.90;;;9.20;99.90;;;;;;6224167;23;20144;-81
2020/12/20 04:18:57;;;;;;;1999.90;999.90;;;9.20;99.90;;;;;;6224269;23;20143;-81
2020/12/20 04:21:25;;;;;;;1999.90;999.90;;;9.20;99.90;;;;;;6224267;23;20152;-81
2020/12/20 04:23:51;;;;;;;1999.90;999.90;;;9.20;99.90;;;;;;6225375;23;20140;-80
2020/12/20 04:26:20;;;;;;;1999.90;999.90;;;9.20;99.90;;;;;;6199356;23;20476;-81
2020/12/20 04:28:46;;;;;;;1999.90;999.90;;;9.20;99.90;;;;;;6197558;23;20156;-81
2020/12/20 04:31:14;;;;;;;1999.90;999.90;;;9.20;99.90;;;;;;6196710;23;20144;-81
2020/12/20 04:33:46;;;;;;;1999.90;999.90;;;9.20;99.90;;;;;;6224294;23;20407;-81
2020/12/20 04:36:12;;;;;;;1999.90;999.90;;;9.20;99.90;;;;;;6197698;23;20191;-81
2020/12/20 04:38:43;;;;;;;1999.90;999.90;;;9.30;99.90;;;;;;6197615;23;20145;-81
2020/12/20 04:41:25;;;;;;;1999.90;999.90;;;9.30;99.90;;;;;;6224834;23;20378;-81
2020/12/20 04:44:41;;;;;;;1999.90;999.90;;;9.20;99.90;;;;;;6198453;23;20224;-81
2020/12/20 04:47:09;;;;;;;1999.90;999.90;;;9.30;99.90;;;;;;6208939;23;20199;-81
2020/12/20 04:49:42;;;;;;;1999.90;999.90;;;9.30;99.90;;;;;;6222904;23;20152;-81
2020/12/20 04:52:09;;;;;;;1999.90;999.90;;;9.30;99.90;;;;;;6197222;23;20183;-81
2020/12/20 04:54:40;;;;;;;1999.90;999.90;;;9.30;99.90;;;;;;6188904;23;20145;-81
2020/12/20 04:57:15;;;;;;;1999.90;999.90;;;9.30;99.90;;;;;;6223939;23;20464;-81
2020/12/20 04:59:42;;;;;;;1999.90;999.90;;;9.30;99.90;;;;;;6199549;23;20140;-81
2020/12/20 05:02:14;;;;;;;1999.90;999.90;;;9.20;99.90;;;;;;6223570;23;20216;-81
2020/12/20 05:04:48;;;;;;;1999.90;999.90;;;9.20;99.90;;;;;;6224225;23;20188;-81
2020/12/20 05:07:34;;;;;;;1999.90;999.90;;;9.20;99.90;;;;;;6224167;23;20130;-81
2020/12/20 05:10:10;;;;;;;1999.90;999.90;;;9.20;99.90;;;;;;6223841;23;20235;-81
2020/12/20 05:12:44;;;;;;;1999.90;999.90;;;9.20;99.90;;;;;;6196949;23;20215;-81
2020/12/20 05:15:50;;;;;;;1999.90;999.90;;;9.20;99.90;;;;;;6198560;23;20137;-80
2020/12/20 05:18:18;;;;;;;1999.90;999.90;;;9.10;99.90;;;;;;6223741;23;20163;-81
2020/12/20 05:20:50;;;;;;;1999.90;999.90;;;9.10;99.90;;;;;;6222839;23;20167;-81
2020/12/20 05:23:29;;;;;;;1999.90;999.90;;;9.00;99.90;;;;;;6196653;23;20643;-81
2020/12/20 05:26:14;;;;;;;1999.90;999.90;;;9.10;99.90;;;;;;6223934;23;20129;-81
2020/12/20 05:28:40;;;;;;;1999.90;999.90;;;9.00;99.90;;;;;;6223786;23;20129;-81
2020/12/20 05:31:08;;;;;;;1999.90;999.90;;;9.00;99.90;;;;;;6223452;23;20204;-81
2020/12/20 05:33:33;;;;;;;1999.90;999.90;;;9.00;99.90;;;;;;6223698;23;20441;-82
2020/12/20 05:36:13;;;;;;;1999.90;999.90;;;9.00;99.90;;;;;;6197093;23;20148;-81
2020/12/20 05:38:42;;;;;;;1999.90;999.90;;;8.90;99.90;;;;;;6223948;23;20394;-81
2020/12/20 05:41:10;;;;;;;1999.90;999.90;;;8.90;99.90;;;;;;6196931;23;20145;-81
2020/12/20 05:43:41;;;;;;;1999.90;999.90;;;8.90;99.90;;;;;;6196381;23;20601;-80
2020/12/20 05:46:28;;;;;;;1999.90;999.90;;;9.00;99.90;;;;;;6223963;23;20669;-81
2020/12/20 05:49:22;;;;;;;1999.90;999.90;;;9.00;99.90;;;;;;6197204;23;20482;-81
2020/12/20 05:52:12;;;;;;;1999.90;999.90;;;9.00;99.90;;;;;;6196045;23;20172;-81
2020/12/20 05:54:40;;;;;;;1999.90;999.90;;;9.00;99.90;;;;;;6222825;23;20205;-82
2020/12/20 05:57:32;;;;;;;1999.90;999.90;;;9.10;99.90;;;;;;6194865;23;20164;-81
2020/12/20 06:00:01;;;;;;;1999.90;999.90;;;9.10;99.90;;;;;;6218922;23;20227;-81
2020/12/20 06:02:39;;;;;;;1999.90;999.90;;;9.00;99.90;;;;;;6195808;23;20149;-81
2020/12/20 06:05:24;;;;;;;1999.90;999.90;;;9.00;99.90;;;;;;6223602;23;20151;-81
2020/12/20 06:07:54;;;;;;;1999.90;999.90;;;9.00;99.90;;;;;;6197515;23;20148;-81
2020/12/20 06:10:40;;;;;;;1999.90;999.90;;;9.10;99.90;;;;;;6197211;23;20141;-81
2020/12/20 06:13:19;;;;;;;1999.90;999.90;;;9.10;99.90;;;;;;6196637;23;20187;-81
2020/12/20 06:15:53;;;;;;;1999.90;999.90;;;9.10;99.90;;;;;;6223858;23;20117;-81
2020/12/20 06:18:34;;;;;;;1999.90;999.90;;;9.10;99.90;;;;;;6224065;23;20465;-82
2020/12/20 06:21:03;;;;;;;1999.90;999.90;;;9.20;99.90;;;;;;6220769;22;20184;-83
2020/12/20 06:23:33;;;;;;;1999.90;999.90;;;9.20;99.90;;;;;;6232723;23;20156;-83
2020/12/20 06:26:04;;;;;;;1999.90;999.90;;;9.20;99.90;;;;;;6229813;23;20164;-83
2020/12/20 06:28:34;;;;;;;1999.90;999.90;;;9.10;99.90;;;;;;6232458;23;20159;-83
2020/12/20 06:31:01;;;;;;;1999.90;999.90;;;9.10;99.90;;;;;;6231677;23;20145;-83
2020/12/20 06:33:53;;;;;;;1999.90;999.90;;;9.10;99.90;;;;;;6206415;23;20196;-83
2020/12/20 06:36:20;;;;;;;1999.90;999.90;;;9.10;99.90;;;;;;6232384;23;20125;-83
2020/12/20 06:38:55;;;;;;;1999.90;999.90;;;9.00;99.90;;;;;;6232340;23;20290;-81
2020/12/20 06:41:51;;;;;;;1999.90;999.90;;;8.90;99.90;;;;;;6233127;23;20152;-81
2020/12/20 06:44:17;;;;;;;1999.90;999.90;;;9.00;99.90;;;;;;6204512;23;20191;-83
2020/12/20 06:46:43;;;;;;;1999.90;999.90;;;9.00;99.90;;;;;;6232777;23;20137;-83
2020/12/20 06:49:34;;;;;;;1999.90;999.90;;;8.90;99.90;;;;;;6233052;23;20513;-83
2020/12/20 06:52:28;;;;;;;1999.90;999.90;;;9.00;99.90;;;;;;6204017;23;20438;-83
2020/12/20 06:55:01;;;;;;;1999.90;999.90;;;9.00;99.90;;;;;;6205045;23;20144;-83
2020/12/20 06:57:27;;;;;;;1999.90;999.90;;;9.00;99.90;;;;;;6231357;23;20162;-84
2020/12/20 06:59:52;;;;;;;1999.90;999.90;;;9.00;99.90;;;;;;6232770;23;20574;-83
2020/12/20 07:02:46;;;;;;;1999.90;999.90;;;8.90;99.90;;;;;;6232505;23;20200;-83
2020/12/20 07:05:41;;;;;;;1999.90;999.90;;;8.90;99.90;;;;;;6232718;23;20137;-83
2020/12/20 07:08:07;;;;;;;1999.90;999.90;;;8.80;99.90;;;;;;6206682;23;20605;-83
2020/12/20 07:10:44;;;;;;;1999.90;999.90;;;8.80;99.90;;;;;;6206408;23;20231;-83
2020/12/20 07:13:11;;;;;;;1999.90;999.90;;;8.80;99.90;;;;;;6232227;23;20402;-83
2020/12/20 07:16:04;;;;;;;1999.90;999.90;;;8.80;99.90;;;;;;6232280;23;20500;-83
2020/12/20 07:18:52;;;;;;;1999.90;999.90;;;8.80;99.90;;;;;;6232258;23;20518;-83
2020/12/20 07:21:18;;;;;;;1999.90;999.90;;;8.70;99.90;;;;;;6205465;23;20218;-83
2020/12/20 07:24:05;;;;;;;1999.90;999.90;;;8.70;99.90;;;;;;6232306;23;20133;-83
2020/12/20 07:26:32;;;;;;;1999.90;999.90;;;8.70;99.90;;;;;;6225142;23;20229;-83
2020/12/20 07:29:05;;;;;;;1999.90;999.90;;;8.70;99.90;;;;;;6232469;23;20176;-83
2020/12/20 07:31:31;;;;;;;1999.90;999.90;;;8.70;99.90;;;;;;6204562;23;20137;-83
2020/12/20 07:33:57;;;;;;;1999.90;999.90;;;8.70;99.90;;;;;;6203819;23;20172;-83
2020/12/20 07:36:24;;;;;;;1999.90;999.90;;;8.70;99.90;;;;;;6232645;23;20191;-83
2020/12/20 07:38:50;;;;;;;1999.90;999.90;;;8.80;99.90;;;;;;6231278;23;20136;-83
2020/12/20 07:41:17;;;;;;;1999.90;999.90;;;8.70;99.90;;;;;;6203128;23;20144;-83
2020/12/20 07:43:44;;;;;;;1999.90;999.90;;;8.70;99.90;;;;;;6204927;23;20164;-83
2020/12/20 07:46:12;;;;;;;1999.90;999.90;;;8.60;99.90;;;;;;6232203;23;20490;-83
2020/12/20 07:48:38;;;;;;;1999.90;999.90;;;8.60;99.90;;;;;;6231513;23;20137;-83
2020/12/20 07:51:12;;;;;;;1999.90;999.90;;;8.70;99.90;;;;;;6230978;23;20147;-83
2020/12/20 07:53:55;;;;;;;1999.90;999.90;;;8.70;99.90;;;;;;6202925;23;20211;-83
2020/12/20 07:56:24;;;;;;;1999.90;999.90;;;8.70;99.90;;;;;;6203857;23;20585;-83
2020/12/20 07:58:51;;;;;;;1999.90;999.90;;;8.70;99.90;;;;;;6231716;23;20166;-83
2020/12/20 08:01:17;;;;;;;1999.90;999.90;;;8.60;99.90;;;;;;6230586;23;20137;-83
2020/12/20 08:03:42;;;;;;;1999.90;999.90;;;8.60;99.90;;;;;;6203978;23;20152;-83
2020/12/20 08:06:09;;;;;;;1999.90;999.90;;;8.70;99.90;;;;;;6230623;23;20840;-83
2020/12/20 08:08:36;;;;;;;1999.90;999.90;;;8.70;99.90;;;;;;6202590;23;20156;-83
2020/12/20 08:11:17;;;;;;;1999.90;999.90;;;8.70;99.90;;;;;;6229852;23;20141;-83
2020/12/20 08:13:57;;;;;;;1999.90;999.90;;;8.70;99.90;;;;;;6203658;23;20216;-83
2020/12/20 08:16:28;;;;;;;1999.90;999.90;;;8.80;99.90;;;;;;6231658;23;20125;-83
2020/12/20 08:19:05;;;;;;;1999.90;999.90;;;8.80;99.90;;;;;;6231470;23;20443;-83
2020/12/20 08:21:46;;;;;;;1999.90;999.90;;;8.80;99.90;;;;;;6231269;23;20163;-84
2020/12/20 08:24:12;;;;;;;1999.90;999.90;;;8.80;99.90;;;;;;6234239;23;20125;-84
2020/12/20 08:26:39;;;;;;;1999.90;999.90;;;8.90;99.90;;;;;;6234099;23;20576;-84
2020/12/20 08:29:05;;;;;;;1999.90;999.90;;;8.80;99.90;;;;;;6231423;23;20187;-84
2020/12/20 08:31:32;;;;;;;1999.90;999.90;;;8.90;99.90;;;;;;6207008;23;20155;-84
2020/12/20 08:33:59;;;;;;;1999.90;999.90;;;8.80;99.90;;;;;;6233038;23;20183;-84
2020/12/20 08:36:25;;;;;;;1999.90;999.90;;;8.80;99.90;;;;;;6232728;23;20164;-84
2020/12/20 08:38:52;;;;;;;1999.90;999.90;;;8.80;99.90;;;;;;6233452;23;20140;-84
2020/12/20 08:41:28;;;;;;;1999.90;999.90;;;8.90;99.90;;;;;;6232652;23;20137;-84
2020/12/20 08:44:11;;;;;;;1999.90;999.90;;;8.90;99.90;;;;;;6206571;23;20144;-84
2020/12/20 08:46:42;;;;;;;1999.90;999.90;;;9.00;99.90;;;;;;6206095;23;20132;-84
2020/12/20 08:49:15;;;;;;;1999.90;999.90;;;9.00;99.90;;;;;;6233234;23;20135;-84
2020/12/20 08:51:41;;;;;;;1999.90;999.90;;;9.00;99.90;;;;;;6206680;23;20151;-84
2020/12/20 08:54:11;;;;;;;1999.90;999.90;;;9.00;99.90;;;;;;6207641;23;20195;-84
2020/12/20 08:56:55;;;;;;;1999.90;999.90;;;9.00;99.90;;;;;;6233891;23;20136;-84
2020/12/20 08:59:34;;;;;;;1999.90;999.90;;;9.00;99.90;;;;;;6233082;23;20147;-84
2020/12/20 09:02:01;;;;;;;1999.90;999.90;;;9.10;99.90;;;;;;6207473;23;20137;-84
2020/12/20 09:04:29;;;;;;;1999.90;999.90;;;9.10;99.90;;;;;;6234101;23;20163;-84
2020/12/20 09:07:15;;;;;;;1999.90;999.90;;;9.10;99.90;;;;;;6233297;23;20145;-84
2020/12/20 09:09:41;;;;;;;1999.90;999.90;;;9.20;99.90;;;;;;6233211;23;20125;-84
2020/12/20 09:12:22;;;;;;;1999.90;999.90;;;9.20;99.90;;;;;;6232711;23;20168;-84
2020/12/20 09:15:00;;;;;;;1999.90;999.90;;;9.20;99.90;;;;;;6207221;23;20485;-84
2020/12/20 09:17:34;;;;;;;1999.90;999.90;;;9.30;99.90;;;;;;6207280;23;20148;-84
2020/12/20 09:20:00;;;;;;;1999.90;999.90;;;9.30;99.90;;;;;;6232760;23;20143;-84
2020/12/20 09:22:42;;;;;;;1999.90;999.90;;;9.40;99.90;;;;;;6233622;23;20180;-84
2020/12/20 09:25:08;;;;;;;1999.90;999.90;;;9.30;99.90;;;;;;6207184;23;20148;-84
2020/12/20 09:27:34;;;;;;;1999.90;999.90;;;9.40;99.90;;;;;;6233996;23;20580;-84
2020/12/20 09:30:02;;;;;;;1999.90;999.90;;;9.30;99.90;;;;;;6206798;23;20159;-84
2020/12/20 09:32:34;;;;;;;1999.90;999.90;;;9.40;99.90;;;;;;6207113;23;20202;-84
2020/12/20 09:35:08;;;;;;;1999.90;999.90;;;9.40;99.90;;;;;;6205832;23;20160;-84
2020/12/20 09:37:41;;;;;;;1999.90;999.90;;;9.40;99.90;;;;;;6232850;23;20143;-84
2020/12/20 09:40:08;;;;;;;1999.90;999.90;;;9.40;99.90;;;;;;6233269;23;20185;-84
2020/12/20 09:42:38;;;;;;;1999.90;999.90;;;9.40;99.90;;;;;;6232933;23;20204;-84
2020/12/20 09:45:05;;;;;;;1999.90;999.90;;;9.40;99.90;;;;;;6232617;23;20148;-84
2020/12/20 09:47:35;;;;;;;1999.90;999.90;;;9.50;99.90;;;;;;6233292;23;20144;-84
2020/12/20 09:50:01;;;;;;;1999.90;999.90;;;9.50;99.90;;;;;;6233455;23;20140;-84
2020/12/20 09:52:26;;;;;;;1999.90;999.90;;;9.60;99.90;;;;;;6233568;23;20521;-84
2020/12/20 09:54:52;;;;;;;1999.90;999.90;;;9.70;99.90;;;;;;6229582;23;20211;-84
2020/12/20 09:57:18;;;;;;;1999.90;999.90;;;9.70;99.90;;;;;;6235236;23;20141;-84
2020/12/20 09:59:43;;;;;;;1999.90;999.90;;;9.80;99.90;;;;;;6208551;23;20144;-84
2020/12/20 10:02:09;;;;;;;1999.90;999.90;;;9.90;99.90;;;;;;6236559;23;20179;-84
2020/12/20 10:04:34;;;;;;;1999.90;999.90;;;9.90;99.90;;;;;;6235496;23;20141;-84
2020/12/20 10:07:00;;;;;;;1999.90;999.90;;;9.90;99.90;;;;;;6235413;23;20168;-84
2020/12/20 10:09:26;;;;;;;1999.90;999.90;;;10.00;99.90;;;;;;6207345;23;20653;-84
2020/12/20 10:11:51;;;;;;;1999.90;999.90;;;9.90;99.90;;;;;;6234395;23;20161;-84
2020/12/20 10:14:17;;;;;;;1999.90;999.90;;;9.90;99.90;;;;;;6233742;23;20145;-84
2020/12/20 10:16:43;;;;;;;1999.90;999.90;;;9.90;99.90;;;;;;6209744;23;20144;-84
2020/12/20 10:19:08;;;;;;;1999.90;999.90;;;9.90;99.90;;;;;;6236026;23;20176;-84
2020/12/20 10:21:34;;;;;;;1999.90;999.90;;;9.90;99.90;;;;;;6233422;23;20153;-84
2020/12/20 10:24:00;;;;;;;1999.90;999.90;;;9.80;99.90;;;;;;6233458;23;20212;-84
2020/12/20 10:26:25;;;;;;;1999.90;999.90;;;9.90;99.90;;;;;;6232695;23;20137;-84
2020/12/20 10:28:51;;;;;;;1999.90;999.90;;;10.00;99.90;;;;;;6232535;23;20159;-84
2020/12/20 10:31:20;;;;;;;1999.90;999.90;;;10.00;99.90;;;;;;6233136;23;20133;-84
2020/12/20 10:33:46;;;;;;;1999.90;999.90;;;10.00;99.90;;;;;;6203517;23;20179;-84
2020/12/20 10:36:15;;;;;;;1999.90;999.90;;;10.10;99.90;;;;;;6234075;23;20137;-84
2020/12/20 10:38:40;;;;;;;1999.90;999.90;;;10.20;99.90;;;;;;6234793;23;20427;-84
2020/12/20 10:41:06;;;;;;;1999.90;999.90;;;10.20;99.90;;;;;;6234477;23;20137;-84
2020/12/20 10:43:32;;;;;;;1999.90;999.90;;;10.20;99.90;;;;;;6234798;23;20207;-84
2020/12/20 10:45:57;;;;;;;1999.90;999.90;;;10.20;99.90;;;;;;6233815;23;20700;-84
2020/12/20 10:48:23;;;;;;;1999.90;999.90;;;10.20;99.90;;;;;;6207721;23;20157;-84
2020/12/20 10:50:49;;;;;;;1999.90;999.90;;;10.10;99.90;;;;;;6208088;23;20155;-84
2020/12/20 10:53:14;;;;;;;1999.90;999.90;;;10.20;99.90;;;;;;6234082;23;20172;-84
2020/12/20 10:55:41;;;;;;;1999.90;999.90;;;10.20;99.90;;;;;;6234683;23;20623;-84
2020/12/20 10:58:06;;;;;;;1999.90;999.90;;;10.20;99.90;;;;;;6208560;23;20145;-84
2020/12/20 11:00:32;;;;;;;1999.90;999.90;;;10.20;99.90;;;;;;6234906;23;20163;-84
2020/12/20 11:02:58;;;;;;;1999.90;999.90;;;10.20;99.90;;;;;;6233790;23;20145;-84
2020/12/20 11:05:25;;;;;;;1999.90;999.90;;;10.30;99.90;;;;;;6235299;23;20145;-84
2020/12/20 11:07:51;;;;;;;1999.90;999.90;;;10.40;99.90;;;;;;6208467;23;20148;-84
2020/12/20 11:10:18;;;;;;;1999.90;999.90;;;10.40;99.90;;;;;;6207917;23;20155;-84
2020/12/20 11:12:43;;;;;;;1999.90;999.90;;;10.40;99.90;;;;;;6234858;23;20176;-84
2020/12/20 11:15:09;;;;;;;1999.90;999.90;;;10.50;99.90;;;;;;6234433;23;20141;-84
2020/12/20 11:17:34;;;;;;;1999.90;999.90;;;10.50;99.90;;;;;;6208123;23;20176;-84
2020/12/20 11:20:00;;;;;;;1999.90;999.90;;;10.50;99.90;;;;;;6208098;23;20156;-84
2020/12/20 11:22:26;;;;;;;1999.90;999.90;;;10.50;99.90;;;;;;6234628;23;20195;-84
2020/12/20 11:24:51;;;;;;;1999.90;999.90;;;10.50;99.90;;;;;;6234690;23;20191;-84
2020/12/20 11:27:17;;;;;;;1999.90;999.90;;;10.50;99.90;;;;;;6207246;23;20206;-84
2020/12/20 11:29:43;;;;;;;1999.90;999.90;;;10.50;99.90;;;;;;6234623;23;20155;-84
2020/12/20 11:32:08;;;;;;;1999.90;999.90;;;10.50;99.90;;;;;;6234225;23;20168;-84
2020/12/20 11:34:34;;;;;;;1999.90;999.90;;;10.50;99.90;;;;;;6234474;23;20156;-84
2020/12/20 11:36:59;;;;;;;1999.90;999.90;;;10.50;99.90;;;;;;6234514;23;20171;-84
2020/12/20 11:39:25;;;;;;;1999.90;999.90;;;10.50;99.90;;;;;;6234350;23;20144;-84
2020/12/20 11:41:51;;;;;;;1999.90;999.90;;;10.60;99.90;;;;;;6234234;23;20143;-84
2020/12/20 11:44:17;;;;;;;1999.90;999.90;;;10.60;99.90;;;;;;6233944;23;20164;-84
2020/12/20 11:46:43;;;;;;;1999.90;999.90;;;10.60;99.90;;;;;;6234381;23;20706;-84
2020/12/20 11:49:08;;;;;;;1999.90;999.90;;;10.60;99.90;;;;;;6208327;23;20605;-84
2020/12/20 11:51:34;;;;;;;1999.90;999.90;;;10.60;99.90;;;;;;6234552;23;20161;-84
2020/12/20 11:54:00;;;;;;;1999.90;999.90;;;10.50;99.90;;;;;;6233789;23;20148;-84
2020/12/20 11:56:26;;;;;;;1999.90;999.90;;;10.60;99.90;;;;;;6233883;23;20137;-84
2020/12/20 11:58:51;;;;;;;1999.90;999.90;;;10.60;99.90;;;;;;6233608;23;20367;-84
2020/12/20 12:01:27;;;;;;;1999.90;999.90;;;10.60;99.90;;;;;;6233721;23;20200;-84
2020/12/20 12:03:53;;;;;;;1999.90;999.90;;;10.60;99.90;;;;;;6234377;23;20196;-84
2020/12/20 12:06:19;;;;;;;1999.90;999.90;;;10.70;99.90;;;;;;6207195;23;20462;-84
2020/12/20 12:08:45;;;;;;;1999.90;999.90;;;10.60;99.90;;;;;;6234009;23;20155;-84
2020/12/20 12:11:16;;;;;;;1999.90;999.90;;;10.70;99.90;;;;;;6206993;23;20452;-84
2020/12/20 12:13:42;;;;;;;1999.90;999.90;;;10.70;99.90;;;;;;6233193;23;20502;-84
2020/12/20 12:16:09;;;;;;;1999.90;999.90;;;10.70;99.90;;;;;;6233899;23;20197;-84
2020/12/20 12:18:34;;;;;;;1999.90;999.90;;;10.80;99.90;;;;;;6234080;23;20167;-84
2020/12/20 12:23:38;;;;;;;1999.90;999.90;;;10.80;99.90;;;;;;6217982;23;20179;-84
2020/12/20 12:26:04;;;;;;;1999.90;999.90;;;10.80;99.90;;;;;;6190915;23;20144;-84
2020/12/20 12:28:33;;;;;;;1999.90;999.90;;;10.80;99.90;;;;;;6191271;23;20148;-84
2020/12/20 12:30:59;;;;;;;1999.90;999.90;;;10.80;99.90;;;;;;6217304;23;20137;-84
2020/12/20 12:33:25;;;;;;;1999.90;999.90;;;10.90;99.90;;;;;;6217340;23;20160;-84
2020/12/20 12:35:50;;;;;;;1999.90;999.90;;;10.90;99.90;;;;;;6217733;23;20448;-84
2020/12/20 12:38:16;;;;;;;1999.90;999.90;;;11.00;99.90;;;;;;6216985;23;20137;-84
2020/12/20 12:40:42;;;;;;;1999.90;999.90;;;11.00;99.90;;;;;;6217274;23;20136;-84